createdAt,value
2023-05-31T00:00:27.557Z,4.40
2023-05-31T00:05:28.942Z,5.15
2023-05-31T00:10:30.312Z,4.53
2023-05-31T00:15:31.702Z,4.78
2023-05-31T00:20:33.116Z,4.38
2023-05-31T00:25:34.527Z,4.88
2023-05-31T00:30:35.960Z,4.72
2023-05-31T00:35:37.382Z,4.53
2023-05-31T00:40:38.775Z,4.80
2023-05-31T00:45:40.299Z,4.93
2023-05-31T00:50:41.831Z,4.28
2023-05-31T00:55:43.227Z,5.57
2023-05-31T01:00:44.586Z,5.35
2023-05-31T01:05:46.329Z,5.00
2023-05-31T01:10:47.756Z,6.03
2023-05-31T01:16:12.513Z,5.40
2023-05-31T01:21:15.282Z,4.15
2023-05-31T01:26:35.760Z,4.22
2023-05-31T01:31:38.292Z,4.68
2023-05-31T01:36:40.114Z,3.80
2023-05-31T01:41:42.693Z,5.03
2023-05-31T01:46:44.387Z,4.28
2023-05-31T01:51:46.015Z,4.70
2023-05-31T01:56:47.764Z,4.72
2023-05-31T02:01:49.318Z,4.50
2023-05-31T02:06:52.878Z,5.03
2023-05-31T02:11:54.333Z,5.47
2023-05-31T02:16:55.731Z,4.75
2023-05-31T02:21:57.486Z,5.30
2023-05-31T02:26:58.940Z,5.30
2023-05-31T02:32:00.493Z,5.50
2023-05-31T02:37:02.345Z,5.03
2023-05-31T02:42:03.911Z,5.90
2023-05-31T02:47:05.406Z,5.33
2023-05-31T02:52:06.998Z,5.77
2023-05-31T02:57:08.797Z,6.80
2023-05-31T03:02:10.516Z,6.30
2023-05-31T03:07:11.876Z,5.80
2023-05-31T03:12:13.467Z,5.27
2023-05-31T03:17:14.898Z,5.00
2023-05-31T03:22:16.385Z,5.63
2023-05-31T03:27:17.998Z,4.53
2023-05-31T03:32:19.447Z,4.73
2023-05-31T03:37:20.912Z,5.03
2023-05-31T03:42:22.364Z,5.17
2023-05-31T03:47:23.877Z,4.82
2023-05-31T03:52:25.284Z,5.25
2023-05-31T03:57:26.731Z,4.38
2023-05-31T04:02:28.874Z,4.00
2023-05-31T04:07:30.577Z,4.13
2023-05-31T04:12:32.027Z,4.38
2023-05-31T04:17:33.478Z,4.25
2023-05-31T04:22:36.215Z,3.97
2023-05-31T04:27:39.527Z,4.95
2023-05-31T04:32:41.992Z,4.90
2023-05-31T04:37:43.612Z,4.25
2023-05-31T04:42:44.995Z,4.50
2023-05-31T04:47:47.715Z,5.47
2023-05-31T04:52:49.208Z,5.47
2023-05-31T04:57:50.563Z,4.88
2023-05-31T05:02:52.001Z,4.70
2023-05-31T05:07:53.671Z,4.35
2023-05-31T05:12:55.029Z,4.70
2023-05-31T05:17:56.851Z,4.78
2023-05-31T05:22:58.317Z,4.15
2023-05-31T05:27:59.700Z,4.63
2023-05-31T05:33:01.188Z,4.00
2023-05-31T05:38:02.614Z,3.33
2023-05-31T05:43:04.177Z,3.85
2023-05-31T05:48:05.734Z,3.53
2023-05-31T05:53:07.244Z,3.35
2023-05-31T05:58:08.654Z,3.50
2023-05-31T06:03:10.079Z,3.75
2023-05-31T06:08:12.030Z,3.70
2023-05-31T06:13:13.604Z,3.42
2023-05-31T06:18:15.408Z,2.85
2023-05-31T06:23:16.741Z,2.70
2023-05-31T06:28:18.187Z,2.42
2023-05-31T06:33:19.556Z,2.33
2023-05-31T06:38:23.009Z,2.00
2023-05-31T06:43:24.418Z,2.67
2023-05-31T06:48:26.273Z,1.52
2023-05-31T06:53:27.673Z,1.80
2023-05-31T06:58:35.154Z,2.08
2023-05-31T07:03:36.596Z,1.50
2023-05-31T07:08:37.987Z,1.35
2023-05-31T07:13:39.411Z,1.48
2023-05-31T07:18:40.896Z,1.17
2023-05-31T07:23:42.297Z,0.70
2023-05-31T07:28:44.772Z,0.60
2023-05-31T07:33:46.302Z,0.85
2023-05-31T07:38:47.760Z,0.50
2023-05-31T07:43:49.143Z,0.50
2023-05-31T07:48:50.953Z,0.47
2023-05-31T07:53:52.474Z,0.63
2023-05-31T07:58:53.907Z,0.60
2023-05-31T08:03:55.886Z,0.90
2023-05-31T08:08:57.344Z,0.70
2023-05-31T08:13:58.762Z,0.70
2023-05-31T08:19:00.278Z,1.42
2023-05-31T08:24:02.118Z,0.95
2023-05-31T08:29:03.968Z,1.13
2023-05-31T08:34:05.496Z,1.00
2023-05-31T08:39:08.291Z,1.15
2023-05-31T08:44:09.917Z,0.93
2023-05-31T08:49:13.986Z,1.25
2023-05-31T08:59:19.249Z,1.30
2023-05-31T09:09:22.497Z,1.60
2023-05-31T09:14:25.890Z,1.80
2023-05-31T09:19:27.481Z,1.70
2023-05-31T09:24:29.106Z,2.13
2023-05-31T09:29:30.574Z,2.88
2023-05-31T09:34:31.947Z,3.17
2023-05-31T09:39:33.855Z,2.45
2023-05-31T09:44:35.395Z,2.10
2023-05-31T09:49:36.794Z,2.13
2023-05-31T09:54:38.678Z,3.42
2023-05-31T09:59:40.918Z,2.55
2023-05-31T10:04:42.693Z,2.08
2023-05-31T10:09:44.067Z,2.25
2023-05-31T10:14:48.751Z,1.88
2023-05-31T10:19:54.162Z,2.03
2023-05-31T10:25:04.491Z,1.42
2023-05-31T10:30:06.618Z,1.52
2023-05-31T10:35:09.836Z,1.40
2023-05-31T10:40:14.042Z,2.03
2023-05-31T10:45:30.819Z,1.85
2023-05-31T10:50:32.305Z,2.20
2023-05-31T10:55:40.702Z,1.90
2023-05-31T11:00:42.501Z,2.40
2023-05-31T11:05:54.953Z,2.53
2023-05-31T11:11:31.718Z,1.90
2023-05-31T11:16:45.089Z,3.15
2023-05-31T11:26:54.674Z,3.03
2023-05-31T11:31:56.531Z,2.97
2023-05-31T11:36:59.666Z,3.17
2023-05-31T11:42:03.612Z,3.22
2023-05-31T11:47:06.532Z,2.85
2023-05-31T11:52:08.187Z,2.55
2023-05-31T11:57:09.877Z,2.72
2023-05-31T12:02:11.565Z,3.72
2023-05-31T12:07:15.946Z,2.85
2023-05-31T12:12:17.410Z,3.65
2023-05-31T12:17:19.244Z,3.25
2023-05-31T12:22:21.117Z,2.83
2023-05-31T12:27:36.934Z,3.20
2023-05-31T12:32:45.250Z,3.05
2023-05-31T12:37:47.087Z,2.92
2023-05-31T12:42:48.465Z,2.45
2023-05-31T12:47:57.094Z,3.05
2023-05-31T12:52:59.013Z,2.97
2023-05-31T12:58:03.968Z,2.40
2023-05-31T13:03:14.236Z,2.35
2023-05-31T13:08:15.907Z,2.10
2023-05-31T13:13:17.419Z,2.28
2023-05-31T13:18:18.900Z,2.70
2023-05-31T13:23:20.404Z,2.80
2023-05-31T13:28:25.946Z,2.60
2023-05-31T13:33:29.162Z,3.42
2023-05-31T13:38:31.346Z,2.30
2023-05-31T13:43:34.550Z,3.60
2023-05-31T13:48:36.856Z,3.60
2023-05-31T13:53:38.370Z,3.17
2023-05-31T13:58:39.808Z,4.43
2023-05-31T14:03:41.387Z,3.40
2023-05-31T14:08:45.147Z,4.00
2023-05-31T14:13:46.564Z,5.18
2023-05-31T14:18:48.053Z,3.88
2023-05-31T14:23:49.475Z,4.03
2023-05-31T14:28:50.858Z,4.00
2023-05-31T14:33:52.272Z,3.30
2023-05-31T14:38:53.819Z,3.00
2023-05-31T14:43:55.255Z,3.78
2023-05-31T14:48:56.753Z,3.90
2023-05-31T14:53:58.245Z,4.07
2023-05-31T14:58:59.614Z,3.05
2023-05-31T15:04:03.806Z,3.17
2023-05-31T15:09:05.485Z,4.13
2023-05-31T15:14:08.965Z,3.20
2023-05-31T15:19:10.662Z,3.25
2023-05-31T15:24:12.064Z,3.08
2023-05-31T15:29:14.401Z,2.75
2023-05-31T15:34:16.497Z,2.63
2023-05-31T15:39:18.217Z,2.85
2023-05-31T15:44:19.639Z,2.83
2023-05-31T15:49:21.008Z,2.90
2023-05-31T15:54:22.364Z,2.70
2023-05-31T15:59:23.800Z,2.55
2023-05-31T16:04:25.326Z,2.58
2023-05-31T16:09:26.763Z,2.90
2023-05-31T16:14:28.253Z,3.35
2023-05-31T16:19:30.139Z,2.58
2023-05-31T16:24:31.705Z,2.08
2023-05-31T16:29:33.064Z,2.38
2023-05-31T16:34:34.496Z,1.77
2023-05-31T16:39:36.213Z,2.42
2023-05-31T16:44:39.568Z,1.80
2023-05-31T16:49:41.083Z,1.88
2023-05-31T16:54:42.478Z,2.30
2023-05-31T16:59:43.853Z,2.22
2023-05-31T17:04:46.990Z,2.45
2023-05-31T17:09:48.358Z,2.00
2023-05-31T17:14:49.724Z,2.63
2023-05-31T17:19:51.153Z,2.65
2023-05-31T17:24:52.676Z,1.98
2023-05-31T17:29:54.074Z,3.17
2023-05-31T17:34:55.721Z,3.58
2023-05-31T17:39:57.093Z,2.83
2023-05-31T17:44:58.684Z,2.88
2023-05-31T17:50:03.682Z,3.20
2023-05-31T17:55:05.598Z,2.85
2023-05-31T18:00:07.419Z,3.15
2023-05-31T18:05:08.931Z,3.40
2023-05-31T18:10:11.119Z,2.88
2023-05-31T18:15:12.570Z,3.15
2023-05-31T18:20:15.080Z,3.38
2023-05-31T18:25:16.470Z,2.92
2023-05-31T18:30:17.966Z,2.80
2023-05-31T18:35:19.434Z,3.45
2023-05-31T18:40:20.897Z,3.75
2023-05-31T18:45:22.600Z,3.78
2023-05-31T18:50:23.997Z,3.42
2023-05-31T18:55:25.441Z,3.67
2023-05-31T19:00:26.988Z,3.33
2023-05-31T19:05:28.417Z,3.63
2023-05-31T19:10:29.797Z,4.18
2023-05-31T19:15:31.579Z,4.47
2023-05-31T19:20:32.965Z,3.10
2023-05-31T19:25:34.468Z,3.75
2023-05-31T19:30:35.838Z,2.88
2023-05-31T19:35:37.250Z,3.88
2023-05-31T19:40:38.682Z,3.78
2023-05-31T19:45:40.192Z,3.10
2023-05-31T19:50:41.690Z,4.22
2023-05-31T19:55:44.649Z,4.10
2023-05-31T20:00:46.083Z,3.33
2023-05-31T20:05:47.553Z,4.18
2023-05-31T20:10:50.147Z,3.53
2023-05-31T20:15:51.740Z,4.70
2023-05-31T20:20:53.125Z,3.75
2023-05-31T20:25:54.502Z,4.20
2023-05-31T20:30:56.135Z,4.25
2023-05-31T20:35:58.726Z,3.90
2023-05-31T20:41:00.356Z,4.10
2023-05-31T20:46:02.177Z,4.22
2023-05-31T20:51:03.858Z,4.53
2023-05-31T20:56:05.420Z,4.80
2023-05-31T21:01:07.249Z,4.22
2023-05-31T21:06:08.654Z,5.30
2023-05-31T21:11:10.037Z,4.25
2023-05-31T21:16:11.450Z,3.70
2023-05-31T21:21:12.882Z,3.75
2023-05-31T21:26:14.290Z,3.67
2023-05-31T21:31:15.758Z,5.03
2023-05-31T21:36:17.138Z,3.40
2023-05-31T21:41:18.939Z,3.83
2023-05-31T21:46:20.468Z,4.13
2023-05-31T21:51:22.085Z,4.07
2023-05-31T21:56:23.459Z,3.55
2023-05-31T22:01:25.355Z,3.97
2023-05-31T22:06:27.130Z,3.75
2023-05-31T22:11:28.592Z,4.75
2023-05-31T22:16:30.529Z,4.30
2023-05-31T22:21:34.163Z,3.10
2023-05-31T22:26:35.853Z,3.83
2023-05-31T22:31:37.306Z,4.00
2023-05-31T22:36:38.876Z,4.07
2023-05-31T22:41:40.307Z,4.63
2023-05-31T22:46:42.122Z,4.25
2023-05-31T22:51:43.657Z,4.25
2023-05-31T22:56:45.374Z,4.03
2023-05-31T23:01:47.268Z,5.05
2023-05-31T23:06:50.329Z,4.65
2023-05-31T23:11:53.068Z,4.65
2023-05-31T23:16:54.566Z,4.10
2023-05-31T23:21:56.343Z,5.10
2023-05-31T23:26:57.737Z,4.50
2023-05-31T23:31:59.379Z,5.10
2023-05-31T23:37:01.130Z,4.20
2023-05-31T23:42:02.503Z,4.53
2023-05-31T23:47:04.003Z,7.10
2023-05-31T23:52:05.955Z,4.80
2023-05-31T23:57:07.490Z,5.57
